createdAt,value
2019-04-01T00:02:13.505Z,91.00
2019-04-01T00:04:43.902Z,91.30
2019-04-01T00:07:14.387Z,91.20
2019-04-01T00:09:44.770Z,91.40
2019-04-01T00:12:15.223Z,91.90
2019-04-01T00:14:45.669Z,91.90
2019-04-01T00:17:16.111Z,92.10
2019-04-01T00:19:46.576Z,92.00
2019-04-01T00:22:17.013Z,92.10
2019-04-01T00:24:47.421Z,92.30
2019-04-01T00:27:17.872Z,92.10
2019-04-01T00:29:48.303Z,92.40
2019-04-01T00:32:18.804Z,92.20
2019-04-01T00:34:49.201Z,92.80
2019-04-01T00:37:19.623Z,92.80
2019-04-01T00:39:50.006Z,92.60
2019-04-01T00:42:28.763Z,92.60
2019-04-01T00:44:59.189Z,93.00
2019-04-01T00:47:29.633Z,93.30
2019-04-01T00:50:00.436Z,93.40
2019-04-01T00:52:30.805Z,93.90
2019-04-01T00:55:01.256Z,94.20
2019-04-01T00:57:31.657Z,94.50
2019-04-01T01:00:02.122Z,94.10
2019-04-01T01:02:33.263Z,94.30
2019-04-01T01:05:03.730Z,94.50
2019-04-01T01:07:34.171Z,94.80
2019-04-01T01:10:04.968Z,94.80
2019-04-01T01:12:35.382Z,94.80
2019-04-01T01:15:07.815Z,95.20
2019-04-01T01:17:38.219Z,94.80
2019-04-01T01:20:08.760Z,95.00
2019-04-01T01:22:39.208Z,95.60
2019-04-01T01:25:09.869Z,95.70
2019-04-01T01:27:40.265Z,96.40
2019-04-01T01:30:11.060Z,96.40
2019-04-01T01:32:41.521Z,96.90
2019-04-01T01:35:12.019Z,97.30
2019-04-01T01:37:42.440Z,97.10
2019-04-01T01:40:12.881Z,96.80
2019-04-01T01:42:43.279Z,96.70
2019-04-01T01:45:13.804Z,96.70
2019-04-01T01:47:44.202Z,97.10
2019-04-01T01:50:14.863Z,97.70
2019-04-01T01:52:45.273Z,97.90
2019-04-01T01:55:15.703Z,97.50
2019-04-01T01:57:46.346Z,97.50
2019-04-01T02:00:17.125Z,98.20
2019-04-01T02:02:47.687Z,97.90
2019-04-01T02:05:18.115Z,97.90
2019-04-01T02:07:48.553Z,98.20
2019-04-01T02:10:18.963Z,98.70
2019-04-01T02:12:49.342Z,98.50
2019-04-01T02:15:19.810Z,98.70
2019-04-01T02:17:50.275Z,98.30
2019-04-01T02:20:20.697Z,98.40
2019-04-01T02:22:51.081Z,98.40
2019-04-01T02:25:21.527Z,98.60
2019-04-01T02:27:51.945Z,98.60
2019-04-01T02:30:22.419Z,99.10
2019-04-01T02:32:52.845Z,99.00
2019-04-01T02:35:23.290Z,99.00
2019-04-01T02:37:53.667Z,99.00
2019-04-01T02:40:24.093Z,99.40
2019-04-01T02:42:54.643Z,99.40
2019-04-01T02:45:25.050Z,99.10
2019-04-01T02:47:55.482Z,99.40
2019-04-01T02:50:25.897Z,99.40
2019-04-01T02:52:56.315Z,99.50
2019-04-01T02:55:26.724Z,99.40
2019-04-01T02:57:57.121Z,99.80
2019-04-01T03:00:27.520Z,99.70
2019-04-01T03:02:57.975Z,99.50
2019-04-01T03:05:28.367Z,99.60
2019-04-01T03:07:58.853Z,99.70
2019-04-01T03:10:29.246Z,99.70
2019-04-01T03:12:59.697Z,99.40
2019-04-01T03:15:30.166Z,99.30
2019-04-01T03:18:00.815Z,99.10
2019-04-01T03:20:31.225Z,99.00
2019-04-01T03:23:01.691Z,98.90
2019-04-01T03:25:32.119Z,98.90
2019-04-01T03:28:02.559Z,98.80
2019-04-01T03:30:32.970Z,98.80
2019-04-01T03:33:03.552Z,98.80
2019-04-01T03:35:34.085Z,98.80
2019-04-01T03:38:04.519Z,98.90
2019-04-01T03:40:35.231Z,98.60
2019-04-01T03:43:05.690Z,98.60
2019-04-01T03:45:36.065Z,98.70
2019-04-01T03:48:06.517Z,98.90
2019-04-01T03:50:36.985Z,99.20
2019-04-01T03:53:07.424Z,99.20
2019-04-01T03:55:37.856Z,99.10
2019-04-01T03:58:08.294Z,99.40
2019-04-01T04:00:38.761Z,99.80
2019-04-01T04:03:09.168Z,99.90
2019-04-01T04:05:39.663Z,99.90
2019-04-01T04:08:10.109Z,99.90
2019-04-01T04:10:40.616Z,99.90
2019-04-01T04:13:11.168Z,99.90
2019-04-01T04:15:41.584Z,99.90
2019-04-01T04:18:12.010Z,99.90
2019-04-01T04:20:42.418Z,99.90
2019-04-01T04:23:12.806Z,99.90
2019-04-01T04:25:43.284Z,99.90
2019-04-01T04:28:13.693Z,99.90
2019-04-01T04:30:44.154Z,99.90
2019-04-01T04:33:14.585Z,99.90
2019-04-01T04:35:45.041Z,99.90
2019-04-01T04:38:15.460Z,99.90
2019-04-01T04:40:45.931Z,99.90
2019-04-01T04:43:16.353Z,99.90
2019-04-01T04:45:47.341Z,99.90
2019-04-01T04:48:17.799Z,99.70
2019-04-01T04:50:48.284Z,99.90
2019-04-01T04:53:18.717Z,99.90
2019-04-01T04:55:49.181Z,99.90
2019-04-01T04:58:19.581Z,99.90
2019-04-01T05:00:49.998Z,99.50
2019-04-01T05:03:20.421Z,99.70
2019-04-01T05:05:51.019Z,99.50
2019-04-01T05:08:21.451Z,99.60
2019-04-01T05:10:52.046Z,99.90
2019-04-01T05:13:22.467Z,99.90
2019-04-01T05:15:52.879Z,99.90
2019-04-01T05:18:23.275Z,99.90
2019-04-01T05:20:54.215Z,99.90
2019-04-01T05:23:26.365Z,99.90
2019-04-01T05:25:56.982Z,99.90
2019-04-01T05:28:28.518Z,99.80
2019-04-01T05:31:01.331Z,99.80
2019-04-01T05:33:33.503Z,99.90
2019-04-01T05:36:04.414Z,99.80
2019-04-01T05:38:34.862Z,99.70
2019-04-01T05:41:06.748Z,99.60
2019-04-01T05:43:37.196Z,99.90
2019-04-01T05:46:07.600Z,99.60
2019-04-01T05:48:38.218Z,99.10
2019-04-01T05:51:08.668Z,98.90
2019-04-01T05:53:39.117Z,98.70
2019-04-01T05:56:09.959Z,98.70
2019-04-01T05:58:40.867Z,98.50
2019-04-01T06:01:15.783Z,97.50
2019-04-01T06:03:46.204Z,97.40
2019-04-01T06:06:16.712Z,97.10
2019-04-01T06:08:47.200Z,96.50
2019-04-01T06:11:17.603Z,95.80
2019-04-01T06:13:48.189Z,94.30
2019-04-01T06:16:18.677Z,93.80
2019-04-01T06:18:49.417Z,93.20
2019-04-01T06:21:19.865Z,91.80
2019-04-01T06:23:50.375Z,91.90
2019-04-01T06:26:20.867Z,90.70
2019-04-01T06:28:51.541Z,89.50
2019-04-01T06:31:22.025Z,87.40
2019-04-01T06:33:52.480Z,85.90
2019-04-01T06:36:23.186Z,82.50
2019-04-01T06:38:53.751Z,81.30
2019-04-01T06:41:24.219Z,75.50
2019-04-01T06:43:54.677Z,70.80
2019-04-01T06:46:25.108Z,62.30
2019-04-01T06:48:55.538Z,57.80
2019-04-01T06:51:25.990Z,53.20
2019-04-01T06:53:56.506Z,51.10
2019-04-01T06:56:26.939Z,47.10
2019-04-01T06:58:57.348Z,45.90
2019-04-01T07:01:27.797Z,42.80
2019-04-01T07:03:58.255Z,42.10
2019-04-01T07:06:28.924Z,40.40
2019-04-01T07:08:59.573Z,39.10
2019-04-01T07:11:30.439Z,37.80
2019-04-01T07:14:01.534Z,35.60
2019-04-01T07:16:32.147Z,36.10
2019-04-01T07:19:02.584Z,36.60
2019-04-01T07:21:33.251Z,33.30
2019-04-01T07:24:03.683Z,31.50
2019-04-01T07:26:34.239Z,32.10
2019-04-01T07:29:04.764Z,31.90
2019-04-01T07:31:35.310Z,31.60
2019-04-01T07:34:05.855Z,33.00
2019-04-01T07:36:36.473Z,30.90
2019-04-01T07:39:08.316Z,30.40
2019-04-01T07:41:38.809Z,30.40
2019-04-01T07:44:10.418Z,29.50
2019-04-01T07:46:41.046Z,29.60
2019-04-01T07:49:11.772Z,31.20
2019-04-01T07:51:42.535Z,29.70
2019-04-01T07:54:12.983Z,28.70
2019-04-01T07:56:43.432Z,29.40
2019-04-01T07:59:13.978Z,29.10
2019-04-01T08:01:44.432Z,30.00
2019-04-01T08:04:15.180Z,31.40
2019-04-01T08:06:45.708Z,30.10
2019-04-01T08:09:16.237Z,28.80
2019-04-01T08:11:49.893Z,27.40
2019-04-01T08:14:19.174Z,26.00
2019-04-01T08:16:49.610Z,26.10
2019-04-01T08:19:20.024Z,25.40
2019-04-01T08:21:52.386Z,25.30
2019-04-01T08:24:22.671Z,24.40
2019-04-01T08:26:53.118Z,23.90
2019-04-01T08:29:29.922Z,23.70
2019-04-01T08:31:55.781Z,23.40
2019-04-01T08:34:26.413Z,23.10
2019-04-01T08:36:56.865Z,23.60
2019-04-01T08:39:27.315Z,23.80
2019-04-01T08:41:57.722Z,23.20
2019-04-01T08:44:28.163Z,23.80
2019-04-01T08:46:58.593Z,23.60
2019-04-01T08:49:29.091Z,23.10
2019-04-01T08:51:59.579Z,23.50
2019-04-01T08:54:30.037Z,24.10
2019-04-01T08:57:00.474Z,24.60
2019-04-01T08:59:30.928Z,25.30
2019-04-01T09:02:16.560Z,24.50
2019-04-01T09:04:33.912Z,25.30
2019-04-01T09:07:04.351Z,25.10
2019-04-01T09:09:35.708Z,23.30
2019-04-01T09:12:06.161Z,23.60
2019-04-01T09:14:37.336Z,23.50
2019-04-01T09:17:07.784Z,22.80
2019-04-01T09:19:38.256Z,22.70
2019-04-01T09:22:08.690Z,22.80
2019-04-01T09:24:39.223Z,24.10
2019-04-01T09:27:09.675Z,24.80
2019-04-01T09:29:40.141Z,25.90
2019-04-01T09:32:10.915Z,24.50
2019-04-01T09:34:41.375Z,25.20
2019-04-01T09:37:11.810Z,22.90
2019-04-01T09:39:42.254Z,22.20
2019-04-01T09:42:12.693Z,22.40
2019-04-01T09:44:43.122Z,22.00
2019-04-01T09:47:13.538Z,22.50
2019-04-01T09:49:43.995Z,23.10
2019-04-01T09:52:14.442Z,22.90
2019-04-01T09:54:44.899Z,22.20
2019-04-01T09:57:17.835Z,21.80
2019-04-01T09:59:47.516Z,22.70
2019-04-01T10:02:31.256Z,22.90
2019-04-01T10:04:50.249Z,23.20
2019-04-01T10:07:20.671Z,23.40
2019-04-01T10:09:51.138Z,22.30
2019-04-01T10:12:21.637Z,21.80
2019-04-01T10:14:52.054Z,22.40
2019-04-01T10:17:22.503Z,20.80
2019-04-01T10:19:52.996Z,20.60
2019-04-01T10:22:23.425Z,20.90
2019-04-01T10:24:53.856Z,20.70
2019-04-01T10:27:24.313Z,22.30
2019-04-01T10:29:54.763Z,23.00
2019-04-01T10:32:25.513Z,22.20
2019-04-01T10:34:55.939Z,22.90
2019-04-01T10:37:26.398Z,22.50
2019-04-01T10:40:00.039Z,22.50
2019-04-01T10:42:29.252Z,22.50
2019-04-01T10:44:59.690Z,23.10
2019-04-01T10:47:30.141Z,21.90
2019-04-01T10:50:00.818Z,22.50
2019-04-01T10:52:31.505Z,22.30
2019-04-01T10:55:02.141Z,21.90
2019-04-01T10:57:32.836Z,21.90
2019-04-01T11:00:03.590Z,22.40
2019-04-01T11:02:35.373Z,22.30
2019-04-01T11:05:06.425Z,23.10
2019-04-01T11:07:36.982Z,23.00
2019-04-01T11:10:11.277Z,23.70
2019-04-01T11:12:40.340Z,22.70
2019-04-01T11:15:15.341Z,22.00
2019-04-01T11:17:44.287Z,21.80
2019-04-01T11:20:15.069Z,22.90
2019-04-01T11:22:45.603Z,22.30
2019-04-01T11:25:16.248Z,23.70
2019-04-01T11:27:46.703Z,23.90
2019-04-01T11:30:17.837Z,24.60
2019-04-01T11:32:48.312Z,26.40
2019-04-01T11:35:20.675Z,28.10
2019-04-01T11:37:51.217Z,29.60
2019-04-01T11:40:21.665Z,30.60
2019-04-01T11:42:52.930Z,31.80
2019-04-01T11:45:23.953Z,32.40
2019-04-01T11:47:54.377Z,34.80
2019-04-01T11:50:25.295Z,37.20
2019-04-01T11:52:56.092Z,35.40
2019-04-01T11:55:26.502Z,37.80
2019-04-01T11:57:56.927Z,37.10
2019-04-01T12:00:27.443Z,37.30
2019-04-01T12:02:57.896Z,37.60
2019-04-01T12:05:28.364Z,38.20
2019-04-01T12:07:58.839Z,38.50
2019-04-01T12:10:29.528Z,38.90
2019-04-01T12:13:00.380Z,39.60
2019-04-01T12:15:30.885Z,39.70
2019-04-01T12:18:01.302Z,41.60
2019-04-01T12:20:31.740Z,41.00
2019-04-01T12:23:02.190Z,42.20
2019-04-01T12:25:32.667Z,41.70
2019-04-01T12:28:03.231Z,40.50
2019-04-01T12:30:33.725Z,41.00
2019-04-01T12:33:04.176Z,40.50
2019-04-01T12:35:35.160Z,40.70
2019-04-01T12:38:06.018Z,40.40
2019-04-01T12:40:36.483Z,41.60
2019-04-01T12:43:07.027Z,41.30
2019-04-01T12:45:37.555Z,40.90
2019-04-01T12:48:08.111Z,40.80
2019-04-01T12:50:38.608Z,40.80
2019-04-01T12:53:09.444Z,41.30
2019-04-01T12:55:40.553Z,41.90
2019-04-01T12:58:12.061Z,41.70
2019-04-01T13:00:42.531Z,42.30
2019-04-01T13:03:12.983Z,41.60
2019-04-01T13:05:43.493Z,41.40
2019-04-01T13:08:14.142Z,41.30
2019-04-01T13:10:44.548Z,41.40
2019-04-01T13:13:15.658Z,42.70
2019-04-01T13:15:46.411Z,43.70
2019-04-01T13:18:16.851Z,42.00
2019-04-01T13:20:47.303Z,41.90
2019-04-01T13:23:17.755Z,41.40
2019-04-01T13:25:48.241Z,41.20
2019-04-01T13:28:18.709Z,40.80
2019-04-01T13:30:49.344Z,41.20
2019-04-01T13:33:19.782Z,41.90
2019-04-01T13:35:50.207Z,42.10
2019-04-01T13:38:20.678Z,42.80
2019-04-01T13:40:51.123Z,42.70
2019-04-01T13:43:21.711Z,42.50
2019-04-01T13:45:52.181Z,43.20
2019-04-01T13:48:22.660Z,42.70
2019-04-01T13:50:53.116Z,42.20
2019-04-01T13:53:23.566Z,42.60
2019-04-01T13:55:54.009Z,42.50
2019-04-01T13:58:24.436Z,43.10
2019-04-01T14:00:54.959Z,43.10
2019-04-01T14:03:25.396Z,42.70
2019-04-01T14:05:55.845Z,42.20
2019-04-01T14:08:26.300Z,41.30
2019-04-01T14:10:56.759Z,41.20
2019-04-01T14:13:27.152Z,41.50
2019-04-01T14:15:57.574Z,41.50
2019-04-01T14:18:28.270Z,42.00
2019-04-01T14:20:58.710Z,41.60
2019-04-01T14:23:29.212Z,41.70
2019-04-01T14:25:59.902Z,41.80
2019-04-01T14:28:30.314Z,41.60
2019-04-01T14:31:00.882Z,40.80
2019-04-01T14:33:32.730Z,41.40
2019-04-01T14:36:04.836Z,41.90
2019-04-01T14:38:35.615Z,42.10
2019-04-01T14:41:06.061Z,41.70
2019-04-01T14:43:36.535Z,42.10
2019-04-01T14:46:06.984Z,42.00
2019-04-01T14:48:37.871Z,42.60
2019-04-01T14:51:08.307Z,43.40
2019-04-01T14:53:38.763Z,43.30
2019-04-01T14:56:09.190Z,42.80
2019-04-01T14:58:39.635Z,43.10
2019-04-01T15:01:10.094Z,41.40
2019-04-01T15:03:40.550Z,41.50
2019-04-01T15:06:11.047Z,41.10
2019-04-01T15:08:41.509Z,42.40
2019-04-01T15:11:12.696Z,42.30
2019-04-01T15:13:43.221Z,42.20
2019-04-01T15:16:14.420Z,41.50
2019-04-01T15:18:45.537Z,41.60
2019-04-01T15:21:16.195Z,41.70
2019-04-01T15:23:46.857Z,41.20
2019-04-01T15:26:17.306Z,41.70
2019-04-01T15:28:47.792Z,42.20
2019-04-01T15:31:18.204Z,41.80
2019-04-01T15:33:49.416Z,41.90
2019-04-01T15:36:20.731Z,42.60
2019-04-01T15:38:51.437Z,42.60
2019-04-01T15:41:21.872Z,42.50
2019-04-01T15:43:52.461Z,42.30
2019-04-01T15:46:22.943Z,41.50
2019-04-01T15:48:53.835Z,41.90
2019-04-01T15:51:24.362Z,41.50
2019-04-01T15:53:55.142Z,41.90
2019-04-01T15:56:25.628Z,42.20
2019-04-01T15:58:56.111Z,41.80
2019-04-01T16:01:26.544Z,42.30
2019-04-01T16:03:57.136Z,42.60
2019-04-01T16:06:27.614Z,42.80
2019-04-01T16:08:58.178Z,42.30
2019-04-01T16:11:28.882Z,41.90
2019-04-01T16:13:59.439Z,42.10
2019-04-01T16:16:30.203Z,42.60
2019-04-01T16:19:01.804Z,43.50
2019-04-01T16:21:32.909Z,43.20
2019-04-01T16:24:03.611Z,43.00
2019-04-01T16:26:34.186Z,44.30
2019-04-01T16:29:05.328Z,43.40
2019-04-01T16:31:36.583Z,43.70
2019-04-01T16:34:07.274Z,43.90
2019-04-01T16:36:38.857Z,44.30
2019-04-01T16:39:10.903Z,43.80
2019-04-01T16:41:41.745Z,43.80
2019-04-01T16:44:15.000Z,44.10
2019-04-01T16:46:45.895Z,44.10
2019-04-01T16:49:16.611Z,44.60
2019-04-01T16:51:47.541Z,44.60
2019-04-01T16:54:18.144Z,45.10
2019-04-01T16:56:48.928Z,45.00
2019-04-01T16:59:19.392Z,45.50
2019-04-01T17:01:50.089Z,45.90
2019-04-01T17:04:20.523Z,45.60
2019-04-01T17:06:50.993Z,45.60
2019-04-01T17:09:22.163Z,46.30
2019-04-01T17:11:54.267Z,45.80
2019-04-01T17:14:24.919Z,46.40
2019-04-01T17:16:55.475Z,47.70
2019-04-01T17:19:27.824Z,47.90
2019-04-01T17:21:58.168Z,47.50
2019-04-01T17:24:28.676Z,49.10
2019-04-01T17:27:12.556Z,49.30
2019-04-01T17:29:46.149Z,49.80
2019-04-01T17:32:16.964Z,50.30
2019-04-01T17:34:47.422Z,50.60
2019-04-01T17:37:17.836Z,51.10
2019-04-01T17:39:48.308Z,51.00
2019-04-01T17:42:19.222Z,51.80
2019-04-01T17:44:53.783Z,52.60
2019-04-01T17:47:27.178Z,52.60
2019-04-01T17:49:56.474Z,52.70
2019-04-01T17:52:27.025Z,52.40
2019-04-01T17:54:57.507Z,53.30
2019-04-01T17:57:28.049Z,53.10
2019-04-01T17:59:58.519Z,54.40
2019-04-01T18:02:31.048Z,55.20
2019-04-01T18:05:01.609Z,55.60
2019-04-01T18:07:32.102Z,55.60
2019-04-01T18:10:02.724Z,56.40
2019-04-01T18:12:33.169Z,56.90
2019-04-01T18:15:03.646Z,56.90
2019-04-01T18:17:34.354Z,57.40
2019-04-01T18:20:05.233Z,57.60
2019-04-01T18:22:36.088Z,58.10
2019-04-01T18:25:07.475Z,58.40
2019-04-01T18:27:37.929Z,58.90
2019-04-01T18:30:09.450Z,59.40
2019-04-01T18:32:39.935Z,59.40
2019-04-01T18:35:10.708Z,59.40
2019-04-01T18:37:41.149Z,59.50
2019-04-01T18:40:11.887Z,60.20
2019-04-01T18:42:42.423Z,60.10
2019-04-01T18:45:13.025Z,60.00
2019-04-01T18:47:46.358Z,60.10
2019-04-01T18:50:16.857Z,60.80
2019-04-01T18:52:47.376Z,61.30
2019-04-01T18:55:17.932Z,61.40
2019-04-01T18:57:48.390Z,61.90
2019-04-01T19:00:19.007Z,62.50
2019-04-01T19:02:49.627Z,62.60
2019-04-01T19:05:20.218Z,62.70
2019-04-01T19:07:50.638Z,62.80
2019-04-01T19:10:21.378Z,63.70
2019-04-01T19:13:04.725Z,64.30
2019-04-01T19:15:24.752Z,64.40
2019-04-01T19:17:56.080Z,64.80
2019-04-01T19:20:27.600Z,65.00
2019-04-01T19:22:58.762Z,66.50
2019-04-01T19:25:29.183Z,66.90
2019-04-01T19:27:59.601Z,66.80
2019-04-01T19:30:30.075Z,67.70
2019-04-01T19:33:00.575Z,68.70
2019-04-01T19:35:31.086Z,68.80
2019-04-01T19:38:01.636Z,69.50
2019-04-01T19:40:32.137Z,69.30
2019-04-01T19:43:03.739Z,69.70
2019-04-01T19:45:34.546Z,69.80
2019-04-01T19:48:05.066Z,70.30
2019-04-01T19:50:35.752Z,70.80
2019-04-01T19:53:06.349Z,71.20
2019-04-01T19:55:36.883Z,71.90
2019-04-01T19:58:07.349Z,72.20
2019-04-01T20:00:37.821Z,73.10
2019-04-01T20:03:08.300Z,73.10
2019-04-01T20:05:38.810Z,74.10
2019-04-01T20:08:09.244Z,74.70
2019-04-01T20:10:39.766Z,75.50
2019-04-01T20:13:10.742Z,75.70
2019-04-01T20:15:41.332Z,75.90
2019-04-01T20:18:12.120Z,76.80
2019-04-01T20:20:42.574Z,76.80
2019-04-01T20:23:13.048Z,77.20
2019-04-01T20:25:43.643Z,78.20
2019-04-01T20:28:14.099Z,79.60
2019-04-01T20:30:45.005Z,79.30
2019-04-01T20:33:17.842Z,81.00
2019-04-01T20:35:47.597Z,80.30
2019-04-01T20:38:18.106Z,81.30
2019-04-01T20:40:48.531Z,81.00
2019-04-01T20:43:18.977Z,81.60
2019-04-01T20:45:51.364Z,81.90
2019-04-01T20:48:21.941Z,81.50
2019-04-01T20:50:54.927Z,82.30
2019-04-01T20:53:24.845Z,82.80
2019-04-01T20:55:55.461Z,83.30
2019-04-01T20:58:25.944Z,82.80
2019-04-01T21:00:56.477Z,83.60
2019-04-01T21:03:27.197Z,84.80
2019-04-01T21:05:57.699Z,85.20
2019-04-01T21:08:28.725Z,84.90
2019-04-01T21:10:59.250Z,85.50
2019-04-01T21:13:30.375Z,86.60
2019-04-01T21:16:01.043Z,86.60
2019-04-01T21:18:31.573Z,86.90
2019-04-01T21:21:02.083Z,86.20
2019-04-01T21:23:32.596Z,85.20
2019-04-01T21:26:03.238Z,86.10
2019-04-01T21:28:34.070Z,86.60
2019-04-01T21:31:04.673Z,85.60
2019-04-01T21:33:35.536Z,86.00
2019-04-01T21:36:06.970Z,85.40
2019-04-01T21:38:37.790Z,86.60
2019-04-01T21:41:08.229Z,86.40
2019-04-01T21:43:38.991Z,86.00
2019-04-01T21:46:09.472Z,86.20
2019-04-01T21:48:39.969Z,86.30
2019-04-01T21:51:10.737Z,85.80
2019-04-01T21:53:41.219Z,85.80
2019-04-01T21:56:12.101Z,85.80
2019-04-01T21:58:42.630Z,86.30
2019-04-01T22:01:14.486Z,86.80
2019-04-01T22:03:45.907Z,87.00
2019-04-01T22:06:16.695Z,86.50
2019-04-01T22:08:47.169Z,87.50
2019-04-01T22:11:17.645Z,88.10
2019-04-01T22:13:48.306Z,87.00
2019-04-01T22:16:19.139Z,87.60
2019-04-01T22:18:49.631Z,87.00
2019-04-01T22:21:20.091Z,87.10
2019-04-01T22:23:50.504Z,87.60
2019-04-01T22:26:21.003Z,86.60
2019-04-01T22:28:51.597Z,86.90
2019-04-01T22:31:22.183Z,88.20
2019-04-01T22:33:52.759Z,87.90
2019-04-01T22:36:31.067Z,87.00
2019-04-01T22:38:55.382Z,87.40
2019-04-01T22:41:25.868Z,87.40
2019-04-01T22:43:56.459Z,87.70
2019-04-01T22:46:26.929Z,88.30
2019-04-01T22:48:57.378Z,90.00
2019-04-01T22:51:27.848Z,88.10
2019-04-01T22:53:58.275Z,88.20
2019-04-01T22:56:28.834Z,89.70
2019-04-01T22:58:59.260Z,88.90
2019-04-01T23:01:29.964Z,88.70
2019-04-01T23:04:00.421Z,88.40
2019-04-01T23:06:30.870Z,88.00
2019-04-01T23:09:01.311Z,87.80
2019-04-01T23:11:33.815Z,88.50
2019-04-01T23:14:03.966Z,88.20
2019-04-01T23:16:34.407Z,88.20
2019-04-01T23:19:05.231Z,88.30
2019-04-01T23:21:35.986Z,89.10
2019-04-01T23:24:06.554Z,88.90
2019-04-01T23:26:37.074Z,89.00
2019-04-01T23:29:07.548Z,88.80
2019-04-01T23:31:38.519Z,88.20
2019-04-01T23:34:09.101Z,88.60
2019-04-01T23:36:40.179Z,89.10
2019-04-01T23:39:11.646Z,90.40
2019-04-01T23:41:42.004Z,90.80
2019-04-01T23:44:12.457Z,90.60
2019-04-01T23:46:43.117Z,90.60
2019-04-01T23:49:13.594Z,91.10
2019-04-01T23:51:45.039Z,91.60
2019-04-01T23:54:15.820Z,91.40
2019-04-01T23:56:46.261Z,91.80
2019-04-01T23:59:16.736Z,92.00
